Flight Track Log - Related Links

Times and Time Zones

All times are in EDT time to prevent confusion due to time zone crossing. See the UPS1337 flight status page for this flight to view local times or setup timezone preferences in your user account.


Time Position Orientation Groundspeed Altitude Reporting Facility
EDT Latitude Longitude Course Direction KTS MPH feet Rate Location/Type
Fri 11:59:00 PM 35.8376 -79.2327 264° West  Level FlightAware Approximate
Sat 12:00:00 AM 35.8308 -79.3231 262° West  Level FlightAware Approximate
Sat 12:01:00 AM 35.8208 -79.4132 262° West  Level FlightAware Approximate
Sat 12:02:00 AM 35.8167 -79.5037 270° West  Level FlightAware Approximate
Sat 12:03:00 AM 35.8020 -79.5919 253° West  Level FlightAware Approximate
Sat 12:04:00 AM 35.7840 -79.6800 256° West  Level FlightAware Approximate
Sat 12:05:00 AM 35.7665 -79.7682 262° West  Level FlightAware Approximate
Sat 12:06:00 AM 35.7565 -79.8582 262° West  Level FlightAware Approximate
Sat 12:07:00 AM 35.7424 -79.9471 253° West  Level FlightAware Approximate
Sat 12:08:00 AM 35.7207 -80.0339 253° West  Level FlightAware Approximate
Sat 12:09:00 AM 35.7116 -80.1231 255° West  Level FlightAware Approximate
Sat 12:10:00 AM 35.6921 -80.2106 255° West  Level FlightAware Approximate
Sat 12:11:00 AM 35.6714 -80.2977 253° West  Level FlightAware Approximate
Sat 12:12:00 AM 35.6529 -80.3855 256° West  Level FlightAware Approximate
Sat 12:13:00 AM 35.6539 -80.4744 302° West  Level FlightAware Approximate
Sat 12:14:00 AM 35.6925 -80.5517 302° West  Level FlightAware Approximate
Sat 12:15:00 AM 35.7263 -80.6323 296° West  Level FlightAware Approximate
Sat 12:16:00 AM 35.7627 -80.7112 301° West  Level FlightAware Approximate
Sat 12:17:00 AM 35.8002 -80.7894 301° West  Level FlightAware Approximate
Sat 12:18:00 AM 35.8377 -80.8677 301° West  Level FlightAware Approximate
Sat 12:19:00 AM 35.8751 -80.9460 301° West  Level FlightAware Approximate
Sat 12:20:00 AM 35.9125 -81.0245 300° West  Level FlightAware Approximate
Sat 12:21:00 AM 35.9502 -81.1027 301° West  Level FlightAware Approximate
Sat 12:22:00 AM 35.9880 -81.1809 301° West  Level FlightAware Approximate
Sat 12:23:00 AM 36.0257 -81.2591 301° West  Level FlightAware Approximate
Sat 12:24:00 AM 36.0634 -81.3375 301° West  Level FlightAware Approximate
Sat 12:25:00 AM 36.1010 -81.4159 301° West  Level FlightAware Approximate
Sat 12:26:00 AM 36.1386 -81.4944 301° West  Level FlightAware Approximate
Sat 12:27:00 AM 36.1761 -81.5730 301° West  Level FlightAware Approximate
Sat 12:28:00 AM 36.2136 -81.6516 301° West  Level FlightAware Approximate
Sat 12:29:00 AM 36.2510 -81.7304 301° West  Level FlightAware Approximate
Sat 12:30:00 AM 36.2884 -81.8092 300° West  Level FlightAware Approximate
Sat 12:31:00 AM 36.3257 -81.8881 300° West  Level FlightAware Approximate
Sat 12:32:00 AM 36.3629 -81.9670 300° West  Level FlightAware Approximate
Sat 12:33:00 AM 36.4002 -82.0461 300° West  Level FlightAware Approximate
Sat 12:34:00 AM 36.4362 -82.1258 291° West  Level FlightAware Approximate
Sat 12:35:00 AM 36.4628 -82.2113 291° West  Level FlightAware Approximate
Sat 12:36:00 AM 36.4894 -82.2968 291° West  Level FlightAware Approximate
Sat 12:37:00 AM 36.5159 -82.3824 291° West  Level FlightAware Approximate
Sat 12:38:00 AM 36.5423 -82.4680 291° West  Level FlightAware Approximate
Sat 12:39:00 AM 36.5687 -82.5537 291° West  Level FlightAware Approximate
Sat 12:40:00 AM 36.5950 -82.6394 291° West  Level FlightAware Approximate
Sat 12:41:00 AM 36.6212 -82.7252 291° West  Level FlightAware Approximate
Sat 12:41:26 AM 37.5836 -84.7469 293° West 309 356 12,900  Level FlightAware ADS-B
Sat 12:42:28 AM 37.6240 -84.8645 294° West 292 336 11,700 -1,075 Descending FlightAware ADS-B
Sat 12:43:12 AM 37.6278 -84.8754 293° West 295 339 11,000 -823 Descending FlightAware ADS-B
Sat 12:44:32 AM 37.7212 -85.0466 313° West 341 392 10,000 -429 Descending FlightAware ADS-B
Sat 12:45:32 AM 37.7791 -85.1250 313° West 267 307 10,000 -655 Level FlightAware ADS-B
Sat 12:46:31 AM 37.8281 -85.1930 312° West 252 290 8,700 -1,150 Descending FlightAware ADS-B
Sat 12:47:32 AM 37.8737 -85.2564 312° West 226 260 7,700 -942 Descending FlightAware ADS-B
Sat 12:48:32 AM 37.9146 -85.3132 312° West 223 257 6,800 -800 Descending FlightAware ADS-B
Sat 12:49:32 AM 37.9563 -85.3707 312° West 217 250 6,100 -350 Descending FlightAware ADS-B
Sat 12:50:32 AM 37.9965 -85.4275 312° West 217 250 6,100  Level FlightAware ADS-B
Sat 12:51:32 AM 38.0368 -85.4841 312° West 218 251 6,100 -50 Level FlightAware ADS-B
Sat 12:52:31 AM 38.0767 -85.5401 312° West 219 252 6,000  Descending FlightAware ADS-B
Sat 12:53:32 AM 38.1236 -85.5878 339° North 236 272 6,100 -446 Climbing FlightAware ADS-B
Sat 12:54:32 AM 38.1866 -85.6188 338° Northwest 242 278 5,100 -1,008 Descending FlightAware ADS-B
Sat 12:55:31 AM 38.2504 -85.6427 346° North 251 289 4,100 -556 Descending FlightAware ADS-B
Sat 12:56:20 AM 38.3043 -85.6608 344° North 249 287 4,100  Level FlightAware ADS-B
Sat 12:57:30 AM 38.3814 -85.6882 346° North 212 244 4,100  Level FlightAware ADS-B
Sat 12:58:31 AM 38.4019 -85.6945 259° West 154 177 4,100  Level FlightAware ADS-B
Sat 12:58:53 AM 38.4122 -85.7396 258° West 152 175 4,100  Level FlightAware ADS-B
Sat 01:01:00 AM 38.2561 -85.7376 179° South  Level Estimated
Sat 01:02:00 AM 38.1824 -85.7366 208° Southwest  Level Estimated
Sat 01:03:00 AM 38.1741 -85.7365 208° Southwest  Level Estimated
Sat 01:04:00 AM 38.1741 -85.7365 208° Southwest  Level Estimated
Sat 01:05:00 AM 38.1741 -85.7365 208° Southwest  Level Estimated
Sat 01:06:00 AM 38.1741 -85.7365 208° Southwest  Level Estimated
Sat 01:07:00 AM 38.1741 -85.7365 208° Southwest  Level Estimated
Sat 01:08:00 AM 38.1741 -85.7365 208° Southwest  Level Estimated
Sat 01:09:00 AM 38.1741 -85.7365 208° Southwest  Level Estimated
Sat 01:10:00 AM 38.1741 -85.7365 208° Southwest  Level Estimated
Sat 01:11:00 AM 38.1741 -85.7365 208° Southwest  Level Estimated
Sat 01:12:00 AM 38.1741 -85.7365 208° Southwest  Level Estimated
Sat 01:13:00 AM 38.1741 -85.7365 208° Southwest  Level Estimated
Sat 01:14:00 AM 38.1741 -85.7365 208° Southwest  Level Estimated
Sat 01:15:00 AM 38.1741 -85.7365 208° Southwest  Level Estimated
Sat 01:16:00 AM 38.1741 -85.7365 208° Southwest  Level Estimated
Sat 01:17:00 AM 38.1741 -85.7365 208° Southwest  Level Estimated
Sat 01:18:00 AM 38.1741 -85.7365 208° Southwest  Level Estimated
Sat 01:19:00 AM 38.1741 -85.7365 208° Southwest  Level Estimated
Sat 01:20:00 AM 38.1741 -85.7365 208° Southwest  Level Estimated
Sat 01:21:00 AM 38.1741 -85.7365 208° Southwest  Level Estimated
Sat 01:22:00 AM 38.1741 -85.7365 208° Southwest  Level Estimated
Sat 01:23:00 AM 38.1741 -85.7365 208° Southwest  Level Estimated
Sat 01:24:00 AM 38.1741 -85.7365 208° Southwest  Level Estimated
Sat 01:25:00 AM 38.1741 -85.7365 208° Southwest  Level Estimated
Sat 01:26:00 AM 38.1741 -85.7365 208° Southwest  Level Estimated
Sat 01:27:00 AM 38.1741 -85.7365 208° Southwest  Level Estimated
Sat 01:28:00 AM 38.1741 -85.7365 208° Southwest  Level Estimated
Sat 01:29:00 AM 38.1741 -85.7365 208° Southwest  Level Estimated
Sat 01:30:00 AM 38.1741 -85.7365 208° Southwest  Level Estimated
Sat 01:31:00 AM 38.1741 -85.7365 208° Southwest  Level Estimated
Sat 01:32:00 AM 38.1741 -85.7365 208° Southwest  Level Estimated
Sat 01:33:00 AM 38.1741 -85.7365 208° Southwest  Level Estimated
Sat 01:34:00 AM 38.1741 -85.7365 208° Southwest  Level Estimated
Sat 01:35:00 AM 38.1741 -85.7365 208° Southwest  Level Estimated
Sat 01:36:00 AM 38.1741 -85.7365 208° Southwest  Level Estimated
Sat 01:37:00 AM 38.1741 -85.7365 208° Southwest  Level Estimated
Sat 01:38:00 AM 38.1741 -85.7365 208° Southwest  Level Estimated
Sat 01:39:00 AM 38.1741 -85.7365 208° Southwest  Level Estimated
Sat 01:40:00 AM 38.1741 -85.7365 208° Southwest  Level Estimated
Sat 01:41:00 AM 38.1741 -85.7365 208° Southwest  Level Estimated
Sat 01:42:00 AM 38.1741 -85.7365 208° Southwest  Level Estimated

Login

Don't have an account? Register now (free) for customized features, flight alerts, and more!